Nelson Lagoon, Alaska
Current Conditions -  °F | °C
As of 3:56 PM on Tuesday 21 Oct 2014 (Local Time) from PAOU Reporting Station
Clear Clear  
Wind Chill: 26°   Ceiling: Unl
Heat Index: 37°   Visibility: NA
Dew Point: 32°   Wind: 20mph
Humidity: 83%   Direction: 310°NW
Pressure: 29.32"   Gusts: NA
Location:  56°N, 161.2°W
Report Text: PAOU 212356Z AUTO 31017KT CLR 03/00 A2932 RMK AO2 TSNO 58001 60005 T00270000 10033 20016 RAE03B19E24B42E45UPB18E22SNB2257E18 P0000 SLP932 $
Loading
Personal Weather Stations






























Interactive Weather Map
Tropical Storm Tracking
New forecast layout! Learn more

10-Day Weather Forecast

Advertisements
Track Severe Weather on mobile